createdAt,value
2023-04-14T00:02:07.686Z,4.43
2023-04-14T00:04:36.854Z,3.33
2023-04-14T00:07:05.503Z,5.05
2023-04-14T00:09:34.216Z,3.20
2023-04-14T00:12:04.169Z,3.95
2023-04-14T00:14:32.629Z,4.60
2023-04-14T00:17:01.319Z,3.80
2023-04-14T00:19:29.932Z,3.30
2023-04-14T00:21:58.909Z,4.28
2023-04-14T00:24:27.493Z,3.58
2023-04-14T00:26:57.021Z,4.10
2023-04-14T00:29:26.940Z,5.10
2023-04-14T00:31:55.463Z,4.55
2023-04-14T00:34:24.003Z,4.25
2023-04-14T00:36:54.003Z,4.97
2023-04-14T00:39:22.773Z,2.45
2023-04-14T00:41:51.351Z,3.83
2023-04-14T00:44:20.118Z,4.82
2023-04-14T00:46:50.181Z,4.07
2023-04-14T00:49:20.101Z,4.80
2023-04-14T00:51:49.241Z,3.38
2023-04-14T00:54:20.528Z,5.50
2023-04-14T00:56:50.792Z,2.40
2023-04-14T00:59:19.612Z,6.20
2023-04-14T01:01:51.171Z,3.72
2023-04-14T01:04:22.569Z,4.05
2023-04-14T01:06:51.305Z,3.70
2023-04-14T01:09:19.867Z,3.25
2023-04-14T01:12:00.028Z,2.97
2023-04-14T01:14:37.004Z,4.45
2023-04-14T01:17:14.622Z,3.67
2023-04-14T01:20:08.572Z,2.08
2023-04-14T01:22:42.244Z,3.33
2023-04-14T01:25:34.873Z,3.08
2023-04-14T01:28:16.306Z,5.20
2023-04-14T01:31:06.324Z,3.10
2023-04-14T01:33:42.487Z,4.50
2023-04-14T01:52:18.404Z,3.28
2023-04-14T01:54:50.215Z,2.65
2023-04-14T01:57:22.890Z,2.45
2023-04-14T01:59:54.768Z,3.17
2023-04-14T02:02:26.746Z,3.83
2023-04-14T02:04:57.553Z,3.78
2023-04-14T02:07:29.007Z,3.05
2023-04-14T02:09:59.771Z,3.42
2023-04-14T02:12:29.546Z,5.50
2023-04-14T02:15:01.160Z,3.90
2023-04-14T02:17:32.536Z,3.58
2023-04-14T02:20:01.954Z,4.90
2023-04-14T02:22:33.391Z,4.55
2023-04-14T02:25:14.523Z,4.28
2023-04-14T02:27:48.915Z,4.18
2023-04-14T02:30:22.804Z,2.90
2023-04-14T02:33:03.074Z,4.15
2023-04-14T02:35:38.168Z,4.80
2023-04-14T02:38:15.036Z,4.82
2023-04-14T02:40:45.043Z,4.82
2023-04-14T02:43:19.815Z,3.92
2023-04-14T02:45:50.927Z,3.22
2023-04-14T02:48:22.582Z,4.78
2023-04-14T02:50:54.521Z,3.97
2023-04-14T02:53:28.365Z,5.57
2023-04-14T02:56:14.160Z,1.80
2023-04-14T02:58:46.013Z,4.00
2023-04-14T03:01:15.743Z,3.78
2023-04-14T03:03:45.160Z,2.97
2023-04-14T03:06:17.012Z,3.72
2023-04-14T03:08:48.474Z,5.32
2023-04-14T03:11:21.489Z,2.90
2023-04-14T03:13:54.225Z,4.63
2023-04-14T03:16:23.517Z,6.38
2023-04-14T03:18:54.523Z,2.58
2023-04-14T03:21:25.329Z,4.68
2023-04-14T03:23:56.912Z,4.07
2023-04-14T03:26:28.672Z,5.75
2023-04-14T03:29:00.664Z,3.58
2023-04-14T03:31:33.916Z,4.82
2023-04-14T03:34:05.988Z,2.65
2023-04-14T03:36:39.780Z,6.15
2023-04-14T03:39:14.689Z,4.28
2023-04-14T03:41:48.731Z,4.47
2023-04-14T03:44:21.203Z,5.25
2023-04-14T03:46:54.580Z,3.40
2023-04-14T03:49:25.280Z,4.70
2023-04-14T03:52:00.361Z,3.30
2023-04-14T03:54:32.542Z,4.10
2023-04-14T03:57:06.367Z,3.85
2023-04-14T03:59:37.725Z,4.03
2023-04-14T04:02:08.716Z,3.42
2023-04-14T04:04:37.912Z,3.92
2023-04-14T04:07:10.532Z,5.03
2023-04-14T04:09:42.947Z,8.40
2023-04-14T04:12:14.786Z,3.67
2023-04-14T04:14:43.462Z,5.72
2023-04-14T04:17:16.903Z,3.33
2023-04-14T04:19:47.330Z,4.15
2023-04-14T04:22:18.549Z,2.42
2023-04-14T04:24:49.453Z,6.22
2023-04-14T04:27:28.277Z,3.15
2023-04-14T04:30:04.967Z,4.95
2023-04-14T04:32:37.763Z,3.60
2023-04-14T04:35:08.409Z,3.63
2023-04-14T04:37:37.909Z,1.58
2023-04-14T04:40:09.830Z,5.13
2023-04-14T04:42:42.824Z,5.65
2023-04-14T04:45:14.306Z,6.57
2023-04-14T04:47:43.586Z,4.38
2023-04-14T04:50:14.771Z,3.17
2023-04-14T04:52:43.303Z,4.15
2023-04-14T04:55:13.248Z,2.30
2023-04-14T04:57:42.261Z,4.80
2023-04-14T05:00:11.694Z,4.00
2023-04-14T05:02:40.389Z,3.70
2023-04-14T05:05:10.216Z,5.93
2023-04-14T05:07:38.758Z,2.25
2023-04-14T05:10:08.093Z,4.15
2023-04-14T05:12:38.047Z,3.85
2023-04-14T05:15:08.508Z,3.33
2023-04-14T05:17:38.866Z,6.90
2023-04-14T05:20:08.457Z,4.38
2023-04-14T05:22:36.953Z,5.85
2023-04-14T05:25:05.957Z,3.58
2023-04-14T05:27:34.570Z,3.90
2023-04-14T05:30:05.203Z,3.90
2023-04-14T05:32:33.844Z,3.92
2023-04-14T05:35:03.494Z,3.97
2023-04-14T05:37:32.766Z,3.35
2023-04-14T05:40:03.419Z,2.85
2023-04-14T05:42:32.080Z,4.28
2023-04-14T05:45:00.604Z,4.43
2023-04-14T05:47:36.715Z,3.55
2023-04-14T05:50:06.370Z,3.35
2023-04-14T05:52:34.842Z,3.97
2023-04-14T05:55:03.397Z,3.88
2023-04-14T05:57:31.980Z,4.65
2023-04-14T06:00:00.601Z,5.00
2023-04-14T06:02:30.653Z,2.97
2023-04-14T06:05:00.096Z,4.47
2023-04-14T06:07:28.905Z,3.83
2023-04-14T06:09:57.405Z,5.57
2023-04-14T06:12:25.974Z,5.80
2023-04-14T06:14:54.494Z,4.22
2023-04-14T06:17:23.400Z,5.25
2023-04-14T06:19:53.641Z,5.45
2023-04-14T06:22:22.236Z,4.65
2023-04-14T06:24:50.815Z,4.70
2023-04-14T06:27:19.302Z,6.22
2023-04-14T06:29:47.850Z,3.40
2023-04-14T06:32:16.588Z,6.68
2023-04-14T06:34:45.242Z,5.15
2023-04-14T06:37:16.436Z,6.93
2023-04-14T06:39:44.939Z,6.00
2023-04-14T06:42:13.498Z,3.08
2023-04-14T06:44:43.301Z,5.05
2023-04-14T06:47:11.872Z,5.20
2023-04-14T06:49:40.390Z,3.63
2023-04-14T06:52:09.009Z,4.30
2023-04-14T06:54:38.942Z,4.75
2023-04-14T06:57:07.565Z,5.28
2023-04-14T06:59:36.085Z,7.22
2023-04-14T07:02:04.746Z,3.92
2023-04-14T07:04:33.418Z,5.28
2023-04-14T07:07:02.068Z,4.88
2023-04-14T07:09:30.913Z,6.53
2023-04-14T07:12:01.516Z,5.05
2023-04-14T07:14:32.268Z,6.85
2023-04-14T08:02:44.035Z,4.57
2023-04-14T08:05:12.983Z,5.30
2023-04-14T08:07:41.652Z,4.60
2023-04-14T08:10:10.520Z,6.53
2023-04-14T08:12:39.083Z,6.03
2023-04-14T08:15:08.454Z,5.55
2023-04-14T08:17:37.473Z,5.30
2023-04-14T08:20:08.736Z,5.03
2023-04-14T08:22:37.207Z,5.55
2023-04-14T08:25:06.251Z,5.07
2023-04-14T08:27:34.821Z,4.53
2023-04-14T08:30:03.560Z,7.18
2023-04-14T08:32:32.372Z,3.65
2023-04-14T08:35:35.148Z,5.13
2023-04-14T08:37:51.935Z,3.92
2023-04-14T08:40:22.897Z,5.72
2023-04-14T08:42:51.414Z,5.20
2023-04-14T08:45:20.372Z,7.13
2023-04-14T08:47:54.031Z,6.13
2023-04-14T08:50:25.191Z,6.63
2023-04-14T08:52:57.446Z,5.60
2023-04-14T08:55:27.279Z,6.13
2023-04-14T08:57:56.470Z,4.93
2023-04-14T09:13:28.746Z,3.00
2023-04-14T09:15:57.441Z,8.40
2023-04-14T09:18:28.307Z,5.70
2023-04-14T09:21:31.145Z,5.43
2023-04-14T09:23:47.466Z,7.53
2023-04-14T09:26:16.334Z,6.38
2023-04-14T09:28:46.324Z,6.35
2023-04-14T09:31:15.086Z,7.63
2023-04-14T09:33:48.109Z,6.50
2023-04-14T09:36:20.938Z,6.88
2023-04-14T09:38:50.934Z,6.32
2023-04-14T09:41:21.831Z,4.47
2023-04-14T09:43:52.850Z,5.97
2023-04-14T09:46:21.800Z,8.68
2023-04-14T09:48:55.319Z,4.03
2023-04-14T09:51:27.929Z,5.85
2023-04-14T09:54:02.638Z,7.25
2023-04-14T09:56:31.633Z,5.22
2023-04-14T09:59:04.949Z,6.78
2023-04-14T10:01:35.038Z,6.80
2023-04-14T10:04:04.251Z,6.18
2023-04-14T10:06:33.966Z,4.80
2023-04-14T10:09:02.928Z,4.38
2023-04-14T10:11:33.561Z,7.25
2023-04-14T10:14:06.279Z,6.35
2023-04-14T10:16:36.000Z,5.28
2023-04-14T10:19:04.969Z,8.02
2023-04-14T10:21:34.163Z,6.50
2023-04-14T10:24:03.305Z,6.63
2023-04-14T10:26:31.901Z,6.15
2023-04-14T10:29:02.546Z,6.10
2023-04-14T10:31:35.734Z,6.15
2023-04-14T10:34:11.028Z,6.10
2023-04-14T10:36:40.239Z,6.03
2023-04-14T10:39:11.037Z,5.80
2023-04-14T10:41:49.914Z,5.28
2023-04-14T10:44:26.383Z,4.07
2023-04-14T10:46:56.944Z,6.82
2023-04-14T10:49:32.862Z,6.03
2023-04-14T10:52:04.552Z,6.53
2023-04-14T10:54:51.461Z,9.25
2023-04-14T10:57:24.622Z,7.45
2023-04-14T10:59:57.290Z,5.32
2023-04-14T11:02:30.218Z,4.63
2023-04-14T11:05:00.179Z,6.65
2023-04-14T11:07:31.436Z,6.70
2023-04-14T11:10:03.581Z,9.45
2023-04-14T11:12:32.792Z,5.88
2023-04-14T11:15:04.818Z,6.07
2023-04-14T11:17:39.637Z,8.70
2023-04-14T11:20:16.131Z,7.32
2023-04-14T11:22:45.959Z,7.13
2023-04-14T11:25:15.816Z,5.45
2023-04-14T11:27:45.364Z,7.38
2023-04-14T11:30:16.613Z,7.50
2023-04-14T11:32:51.694Z,7.05
2023-04-14T11:35:21.293Z,6.53
2023-04-14T11:37:50.189Z,7.35
2023-04-14T11:40:20.838Z,8.30
2023-04-14T11:42:53.840Z,7.63
2023-04-14T11:45:23.366Z,8.10
2023-04-14T11:48:04.536Z,5.70
2023-04-14T11:50:35.972Z,7.68
2023-04-14T11:53:08.848Z,7.50
2023-04-14T11:55:37.334Z,7.75
2023-04-14T11:58:05.906Z,6.25
2023-04-14T12:00:34.973Z,6.93
2023-04-14T12:03:05.673Z,9.65
2023-04-14T12:05:35.637Z,8.32
2023-04-14T12:08:07.550Z,4.22
2023-04-14T12:10:36.567Z,8.93
2023-04-14T12:13:07.417Z,9.00
2023-04-14T12:15:37.445Z,8.90
2023-04-14T12:18:09.383Z,8.57
2023-04-14T12:20:44.085Z,10.48
2023-04-14T12:23:13.231Z,6.57
2023-04-14T12:25:42.096Z,6.75
2023-04-14T12:41:03.700Z,8.23
2023-04-14T12:43:34.777Z,8.82
2023-04-14T12:46:04.600Z,7.43
2023-04-14T12:48:44.939Z,7.30
2023-04-14T12:51:15.557Z,7.28
2023-04-14T12:53:45.255Z,9.18
2023-04-14T12:56:17.578Z,8.60
2023-04-14T12:58:47.773Z,5.43
2023-04-14T13:01:17.876Z,8.85
2023-04-14T13:03:50.368Z,5.90
2023-04-14T13:06:21.106Z,10.02
2023-04-14T13:08:50.662Z,6.07
2023-04-14T13:11:23.493Z,7.50
2023-04-14T13:13:52.433Z,5.43
2023-04-14T13:16:21.392Z,7.60
2023-04-14T13:18:50.165Z,8.52
2023-04-14T13:21:18.837Z,8.43
2023-04-14T13:23:47.447Z,9.05
2023-04-14T13:26:16.013Z,8.15
2023-04-14T13:28:46.108Z,6.32
2023-04-14T13:31:18.606Z,5.65
2023-04-14T13:33:47.273Z,5.60
2023-04-14T13:36:15.915Z,7.63
2023-04-14T13:38:44.418Z,6.78
2023-04-14T13:41:15.356Z,6.63
2023-04-14T13:43:45.425Z,6.60
2023-04-14T13:46:14.114Z,7.28
2023-04-14T13:48:44.429Z,6.82
2023-04-14T13:51:13.072Z,6.13
2023-04-14T13:53:41.691Z,7.90
2023-04-14T14:28:24.777Z,6.22
2023-04-14T14:30:53.553Z,6.50
2023-04-14T14:33:22.102Z,5.50
2023-04-14T14:35:51.075Z,7.45
2023-04-14T14:38:19.702Z,6.75
2023-04-14T14:40:48.234Z,6.00
2023-04-14T14:43:16.797Z,6.22
2023-04-14T14:45:47.223Z,5.45
2023-04-14T14:48:16.723Z,7.13
2023-04-14T14:50:45.262Z,7.25
2023-04-14T14:53:13.847Z,7.00
2023-04-14T14:55:42.464Z,7.65
2023-04-14T14:58:12.130Z,9.52
2023-04-14T15:00:40.733Z,8.15
2023-04-14T15:03:10.906Z,7.72
2023-04-14T15:05:39.771Z,9.18
2023-04-14T15:08:08.592Z,6.80
2023-04-14T15:10:37.253Z,7.40
2023-04-14T15:13:06.611Z,6.63
2023-04-14T15:15:36.340Z,6.10
2023-04-14T15:18:05.377Z,9.05
2023-04-14T15:20:35.408Z,7.00
2023-04-14T15:23:03.963Z,9.82
2023-04-14T15:25:32.557Z,12.30
2023-04-14T15:28:01.302Z,8.82
2023-04-14T15:30:29.870Z,8.65
2023-04-14T15:32:59.366Z,6.95
2023-04-14T15:35:28.113Z,6.90
2023-04-14T15:37:58.174Z,10.90
2023-04-14T15:40:26.830Z,10.05
2023-04-14T15:42:55.600Z,8.70
2023-04-14T15:45:24.363Z,9.40
2023-04-14T15:47:52.885Z,9.70
2023-04-14T15:50:21.437Z,6.20
2023-04-14T15:52:58.916Z,9.57
2023-04-14T15:55:28.308Z,10.55
2023-04-14T15:57:57.110Z,7.75
2023-04-14T16:00:26.142Z,7.40
2023-04-14T16:02:56.670Z,9.48
2023-04-14T16:05:25.543Z,10.70
2023-04-14T16:07:54.345Z,12.13
2023-04-14T16:10:24.551Z,9.10
2023-04-14T16:12:53.104Z,7.45
2023-04-14T16:15:21.717Z,7.63
2023-04-14T16:17:51.226Z,9.35
2023-04-14T16:20:19.860Z,7.95
2023-04-14T16:23:02.680Z,10.13
2023-04-14T16:25:32.747Z,6.72
2023-04-14T16:28:01.259Z,8.45
2023-04-14T16:30:29.834Z,10.15
2023-04-14T16:32:58.470Z,9.65
2023-04-14T16:35:27.108Z,10.15
2023-04-14T16:38:08.396Z,11.00
2023-04-14T16:40:39.010Z,9.55
2023-04-14T16:43:07.665Z,9.73
2023-04-14T16:45:36.355Z,8.43
2023-04-14T16:48:05.179Z,10.15
2023-04-14T16:50:35.060Z,11.10
2023-04-14T16:53:04.282Z,7.45
2023-04-14T16:55:33.941Z,10.50
2023-04-14T16:58:03.837Z,8.77
2023-04-14T17:00:32.681Z,12.30
2023-04-14T17:03:01.985Z,10.85
2023-04-14T17:05:30.737Z,12.18
2023-04-14T17:07:59.424Z,9.32
2023-04-14T17:10:29.668Z,9.07
2023-04-14T17:12:58.239Z,11.48
2023-04-14T17:15:28.522Z,6.72
2023-04-14T17:17:57.128Z,10.43
2023-04-14T17:20:26.526Z,9.98
2023-04-14T17:22:55.405Z,10.15
2023-04-14T17:25:25.917Z,8.32
2023-04-14T17:27:54.881Z,9.55
2023-04-14T17:30:23.388Z,8.15
2023-04-14T17:32:53.835Z,8.70
2023-04-14T17:35:22.593Z,12.05
2023-04-14T17:37:51.175Z,7.68
2023-04-14T17:40:19.962Z,7.72
2023-04-14T17:42:48.597Z,11.52
2023-04-14T17:45:22.885Z,6.63
2023-04-14T17:47:54.708Z,8.35
2023-04-14T17:50:23.966Z,9.10
2023-04-14T17:52:54.940Z,8.20
2023-04-14T17:55:23.637Z,9.95
2023-04-14T17:57:52.836Z,10.65
2023-04-14T18:00:21.598Z,10.32
2023-04-14T18:02:50.229Z,9.57
2023-04-14T18:05:20.312Z,12.95
2023-04-14T18:07:49.424Z,12.13
2023-04-14T18:10:18.802Z,10.13
2023-04-14T18:12:47.786Z,11.05
2023-04-14T18:15:17.042Z,9.90
2023-04-14T18:17:46.874Z,11.40
2023-04-14T18:20:15.769Z,10.60
2023-04-14T18:22:45.697Z,13.50
2023-04-14T18:25:14.667Z,12.07
2023-04-14T18:30:15.383Z,7.50
2023-04-14T18:32:44.171Z,8.25
2023-04-14T18:35:13.118Z,13.93
2023-04-14T18:37:43.344Z,12.98
2023-04-14T18:40:13.725Z,11.52
2023-04-14T18:42:42.331Z,13.05
2023-04-14T18:45:12.469Z,11.25
2023-04-14T18:47:43.166Z,10.30
2023-04-14T18:50:12.468Z,10.70
2023-04-14T18:52:41.129Z,7.65
2023-04-14T18:55:10.669Z,8.77
2023-04-14T18:57:40.641Z,13.18
2023-04-14T19:00:10.524Z,7.70
2023-04-14T19:02:39.223Z,7.72
2023-04-14T19:05:09.940Z,11.23
2023-04-14T19:07:38.561Z,11.57
2023-04-14T19:10:08.070Z,9.95
2023-04-14T19:12:37.910Z,8.45
2023-04-14T19:15:09.055Z,9.68
2023-04-14T19:17:37.667Z,8.10
2023-04-14T19:20:07.428Z,8.38
2023-04-14T19:22:35.953Z,10.32
2023-04-14T19:25:05.612Z,6.97
2023-04-14T19:27:36.131Z,8.88
2023-04-14T19:30:05.007Z,10.13
2023-04-14T19:32:37.293Z,8.13
2023-04-14T19:35:07.786Z,9.35
2023-04-14T19:37:36.685Z,8.43
2023-04-14T19:40:06.944Z,12.43
2023-04-14T19:42:35.750Z,11.32
2023-04-14T19:45:05.008Z,7.88
2023-04-14T19:47:34.013Z,8.18
2023-04-14T19:50:04.485Z,9.35
2023-04-14T19:52:33.013Z,9.15
2023-04-14T19:55:01.520Z,8.55
2023-04-14T19:57:31.704Z,7.85
2023-04-14T20:00:00.201Z,9.40
2023-04-14T20:02:30.529Z,6.88
2023-04-14T20:04:59.245Z,12.40
2023-04-14T20:07:29.254Z,10.18
2023-04-14T20:09:57.773Z,11.05
2023-04-14T20:12:26.426Z,10.10
2023-04-14T20:14:54.987Z,9.75
2023-04-14T20:17:23.589Z,9.18
2023-04-14T20:19:52.219Z,12.10
2023-04-14T20:22:20.924Z,10.40
2023-04-14T20:24:51.568Z,12.18
2023-04-14T20:27:20.242Z,12.15
2023-04-14T20:29:48.763Z,8.55
2023-04-14T20:32:18.015Z,10.65
2023-04-14T20:34:47.306Z,9.27
2023-04-14T20:37:16.652Z,10.43
2023-04-14T20:39:46.334Z,13.18
2023-04-14T20:42:16.669Z,9.32
2023-04-14T20:44:45.221Z,9.35
2023-04-14T20:47:14.066Z,9.70
2023-04-14T20:49:42.880Z,12.23
2023-04-14T20:52:11.419Z,12.60
2023-04-14T20:54:40.021Z,9.77
2023-04-14T20:57:08.677Z,10.82
2023-04-14T20:59:38.618Z,7.90
2023-04-14T21:02:07.398Z,8.32
2023-04-14T21:04:36.070Z,8.48
2023-04-14T21:07:04.871Z,8.50
2023-04-14T21:09:33.440Z,9.70
2023-04-14T21:12:16.087Z,5.57
2023-04-14T21:15:40.216Z,5.68
2023-04-14T21:17:35.878Z,6.22
2023-04-14T21:20:05.921Z,7.93
2023-04-14T21:22:34.524Z,3.65
2023-04-14T21:25:03.070Z,4.45
2023-04-14T21:27:32.205Z,3.17
2023-04-14T21:30:02.161Z,4.47
2023-04-14T21:32:32.329Z,3.15
2023-04-14T21:35:00.823Z,3.08
2023-04-14T21:37:29.356Z,1.92
2023-04-14T21:39:59.127Z,3.72
2023-04-14T21:42:27.707Z,3.38
2023-04-14T21:44:56.344Z,3.83
2023-04-14T21:47:26.227Z,2.20
2023-04-14T21:49:54.795Z,2.53
2023-04-14T21:52:23.676Z,3.33
2023-04-14T21:54:52.263Z,2.88
2023-04-14T21:57:44.341Z,2.13
2023-04-14T22:00:13.392Z,2.15
2023-04-14T22:02:45.157Z,1.77
2023-04-14T22:05:14.377Z,2.95
2023-04-14T22:07:42.919Z,3.42
2023-04-14T22:10:12.115Z,3.85
2023-04-14T22:12:42.407Z,1.48
2023-04-14T22:15:11.626Z,3.25
2023-04-14T22:17:40.288Z,2.15
2023-04-14T22:20:12.022Z,2.25
2023-04-14T22:22:40.620Z,2.90
2023-04-14T22:25:11.718Z,2.65
2023-04-14T22:27:40.457Z,1.85
2023-04-14T22:30:10.938Z,4.53
2023-04-14T22:32:39.455Z,3.85
2023-04-14T22:35:10.475Z,2.25
2023-04-14T22:37:39.054Z,2.40
2023-04-14T22:40:08.862Z,2.08
2023-04-14T22:42:37.429Z,2.70
2023-04-14T22:45:07.629Z,2.22
2023-04-14T22:47:36.375Z,2.35
2023-04-14T22:50:05.931Z,1.33
2023-04-14T22:52:35.824Z,2.40
2023-04-14T22:55:04.472Z,3.03
2023-04-14T22:57:33.280Z,3.35
2023-04-14T23:00:09.091Z,1.52
2023-04-14T23:02:37.965Z,2.47
2023-04-14T23:05:09.230Z,3.65
2023-04-14T23:07:39.732Z,2.45
2023-04-14T23:10:09.250Z,3.00
2023-04-14T23:12:38.829Z,2.25
2023-04-14T23:15:09.438Z,1.52
2023-04-14T23:17:38.082Z,1.48
2023-04-14T23:20:07.663Z,2.38
2023-04-14T23:22:36.180Z,3.13
2023-04-14T23:25:07.359Z,3.22
2023-04-14T23:27:35.933Z,4.53
2023-04-14T23:30:05.501Z,3.28
2023-04-14T23:32:34.383Z,2.85
2023-04-14T23:35:03.357Z,2.28
2023-04-14T23:37:31.956Z,2.22
2023-04-14T23:40:00.762Z,2.33
2023-04-14T23:42:30.657Z,2.00
2023-04-14T23:44:59.817Z,2.17
2023-04-14T23:47:28.404Z,4.40
2023-04-14T23:49:57.466Z,2.90
2023-04-14T23:52:26.044Z,2.50
2023-04-14T23:54:54.503Z,2.72
2023-04-14T23:57:24.643Z,2.58
2023-04-14T23:59:54.505Z,2.38
